Time;durP1;ratioP1;P1;durP2;ratioP2;P2;SDS_P1;SDS_P2;PMS_P1;PMS_P2;Temp;Humidity;BMP_temperature;BMP_pressure;BME280_temperature;BME280_humidity;BME280_pressure;Samples;Min_cycle;Max_cycle;Signal;HPM_P1;HPM_P2
2023/04/22 00:01:16;;;;;;;;;;;;;;;11.71;nan;99850.63;5036538;28;19927;-86
2023/04/22 00:03:43;;;;;;;;;;;;;;;11.67;nan;99843.00;5021752;28;20019;-86
2023/04/22 00:06:08;;;;;;;;;;;;;;;11.71;nan;99850.63;5010467;28;20482;-86
2023/04/22 00:08:34;;;;;;;;;;;;;;;11.79;nan;99837.31;5039308;28;19924;-86
2023/04/22 00:11:02;;;;;;;;;;;;;;;11.88;nan;99830.97;5036194;28;19924;-86
2023/04/22 00:13:27;;;;;;;;;;;;;;;12.04;nan;99827.38;5038133;28;19901;-86
2023/04/22 00:15:52;;;;;;;;;;;;;;;12.17;nan;99834.72;5042846;28;20390;-86
2023/04/22 00:18:17;;;;;;;;;;;;;;;12.26;nan;99828.34;5038296;28;19913;-85
2023/04/22 00:20:43;;;;;;;;;;;;;;;12.36;nan;99828.09;5018737;28;19921;-86
2023/04/22 00:23:08;;;;;;;;;;;;;;;12.44;nan;99828.84;5018815;28;19916;-86
2023/04/22 00:25:34;;;;;;;;;;;;;;;12.52;nan;99834.06;5025504;28;19917;-84
2023/04/22 00:27:59;;;;;;;;;;;;;;;12.61;nan;99828.66;5023419;28;19917;-84
2023/04/22 00:30:24;;;;;;;;;;;;;;;12.67;nan;99830.59;5027772;28;19917;-84
2023/04/22 00:32:49;;;;;;;;;;;;;;;12.70;nan;99824.91;5022711;28;19923;-84
2023/04/22 00:35:15;;;;;;;;;;;;;;;12.72;nan;99818.41;5030866;28;19940;-85
2023/04/22 00:37:40;;;;;;;;;;;;;;;12.69;nan;99810.00;5028825;28;20526;-84
2023/04/22 00:40:05;;;;;;;;;;;;;;;12.68;nan;99813.66;5024448;28;19924;-84
2023/04/22 00:42:31;;;;;;;;;;;;;;;12.69;nan;99816.13;5021872;28;19917;-84
2023/04/22 00:44:56;;;;;;;;;;;;;;;12.74;nan;99812.94;5040238;28;19999;-83
2023/04/22 00:47:25;;;;;;;;;;;;;;;12.77;nan;99825.81;5039378;28;19960;-84
2023/04/22 00:49:50;;;;;;;;;;;;;;;12.77;nan;99825.00;5018716;28;19921;-84
2023/04/22 00:52:16;;;;;;;;;;;;;;;12.74;nan;99816.41;5016853;28;19920;-83
2023/04/22 00:54:41;;;;;;;;;;;;;;;12.71;nan;99818.63;5015416;28;19924;-86
2023/04/22 00:57:06;;;;;;;;;;;;;;;12.66;nan;99824.47;5040621;28;19964;-86
2023/04/22 00:59:32;;;;;;;;;;;;;;;12.60;nan;99819.06;5017652;28;19925;-86
2023/04/22 01:01:57;;;;;;;;;;;;;;;12.51;nan;99808.56;5011723;28;19920;-85
2023/04/22 01:04:23;;;;;;;;;;;;;;;12.44;nan;99810.28;5014491;28;19952;-85
2023/04/22 01:06:50;;;;;;;;;;;;;;;12.36;nan;99814.84;5020378;28;20250;-84
2023/04/22 01:09:16;;;;;;;;;;;;;;;12.28;nan;99815.75;5018009;28;19924;-86
2023/04/22 01:11:41;;;;;;;;;;;;;;;12.21;nan;99820.13;5014576;28;19913;-85
2023/04/22 01:14:06;;;;;;;;;;;;;;;12.16;nan;99815.34;5016494;28;19924;-86
2023/04/22 01:16:34;;;;;;;;;;;;;;;12.09;nan;99809.94;5020672;28;19924;-85
2023/04/22 01:18:59;;;;;;;;;;;;;;;12.06;nan;99810.31;5037962;28;19943;-84
2023/04/22 01:21:25;;;;;;;;;;;;;;;12.02;nan;99805.53;5018127;28;19921;-85
2023/04/22 01:23:50;;;;;;;;;;;;;;;11.98;nan;99806.88;5016141;28;19913;-85
2023/04/22 01:26:16;;;;;;;;;;;;;;;11.92;nan;99811.09;5014610;28;19913;-84
2023/04/22 01:28:41;;;;;;;;;;;;;;;11.86;nan;99811.75;5009273;28;20290;-85
2023/04/22 01:31:06;;;;;;;;;;;;;;;11.81;nan;99812.28;5015148;28;20283;-85
2023/04/22 01:33:32;;;;;;;;;;;;;;;11.77;nan;99815.47;5008050;28;19917;-85
2023/04/22 01:35:58;;;;;;;;;;;;;;;11.71;nan;99819.66;5019449;28;19918;-85
2023/04/22 01:38:23;;;;;;;;;;;;;;;11.66;nan;99819.38;5000917;28;20002;-85
2023/04/22 01:40:49;;;;;;;;;;;;;;;11.57;nan;99826.53;5002512;28;20260;-84
2023/04/22 01:43:14;;;;;;;;;;;;;;;11.53;nan;99833.16;5015764;28;19917;-85
2023/04/22 01:45:43;;;;;;;;;;;;;;;11.52;nan;99828.88;5017303;28;20627;-85
2023/04/22 01:48:10;;;;;;;;;;;;;;;11.52;nan;99825.41;5004521;28;20661;-85
2023/04/22 01:50:38;;;;;;;;;;;;;;;11.49;nan;99837.19;5005344;28;19917;-86
2023/04/22 01:53:12;;;;;;;;;;;;;;;11.45;nan;99839.34;5020912;28;19935;-85
2023/04/22 01:55:43;;;;;;;;;;;;;;;11.41;nan;99838.03;5011358;28;19923;-85
2023/04/22 01:58:10;;;;;;;;;;;;;;;11.39;nan;99836.56;5014795;28;19921;-85
2023/04/22 02:00:52;;;;;;;;;;;;;;;;;;;;;
2023/04/22 02:03:31;;;;;;;;;;;;;;;11.33;nan;99840.72;5015806;28;19921;-85
2023/04/22 02:06:22;;;;;;;;;;;;;;;11.30;nan;99845.53;5001688;28;19967;-85
2023/04/22 02:08:59;;;;;;;;;;;;;;;11.28;nan;99840.44;5030532;28;19975;-86
2023/04/22 02:11:50;;;;;;;;;;;;;;;11.26;nan;99845.88;5012795;28;19917;-85
2023/04/22 02:14:22;;;;;;;;;;;;;;;11.25;nan;99844.25;4986136;28;20012;-85
2023/04/22 02:16:55;;;;;;;;;;;;;;;11.25;nan;99838.97;5006047;28;19916;-85
2023/04/22 02:19:29;;;;;;;;;;;;;;;11.22;nan;99839.28;5029157;28;20004;-85
2023/04/22 02:22:01;;;;;;;;;;;;;;;11.21;nan;99832.34;5019562;28;19959;-85
2023/04/22 02:24:28;;;;;;;;;;;;;;;11.20;nan;99828.06;5035517;28;19917;-85
2023/04/22 02:27:01;;;;;;;;;;;;;;;11.23;nan;99827.72;5018517;28;19966;-85
2023/04/22 02:29:35;;;;;;;;;;;;;;;11.25;nan;99819.63;5011262;28;20377;-85
2023/04/22 02:32:09;;;;;;;;;;;;;;;11.24;nan;99820.59;5004218;28;19917;-86
2023/04/22 02:34:42;;;;;;;;;;;;;;;11.14;nan;99823.44;5012869;28;19956;-85
2023/04/22 02:37:21;;;;;;;;;;;;;;;11.04;nan;99828.97;5014390;28;19977;-85
2023/04/22 02:39:52;;;;;;;;;;;;;;;10.95;nan;99823.88;5023621;28;19913;-85
2023/04/22 02:42:51;;;;;;;;;;;;;;;10.88;nan;99815.78;5009680;28;19921;-84
2023/04/22 02:45:56;;;;;;;;;;;;;;;10.89;nan;99825.38;5015435;28;19917;-85
2023/04/22 02:48:17;;;;;;;;;;;;;;;10.92;nan;99821.59;5021977;28;19916;-85
2023/04/22 02:51:09;;;;;;;;;;;;;;;10.88;nan;99825.56;4996538;28;20008;-85
2023/04/22 02:53:45;;;;;;;;;;;;;;;;;;;;;
2023/04/22 02:56:29;;;;;;;;;;;;;;;;;;;;;
2023/04/22 02:58:57;;;;;;;;;;;;;;;10.84;nan;99838.28;5019444;28;19917;-86
2023/04/22 03:01:31;;;;;;;;;;;;;;;10.81;nan;99839.44;5006491;28;19921;-86
2023/04/22 03:04:23;;;;;;;;;;;;;;;10.78;nan;99844.28;5000842;28;19920;-86
2023/04/22 03:06:56;;;;;;;;;;;;;;;10.71;nan;99849.41;5009658;28;19981;-86
2023/04/22 03:09:24;;;;;;;;;;;;;;;10.66;nan;99846.44;5005316;28;20004;-86
2023/04/22 03:14:59;;;;;;;;;;;;;;;10.62;nan;99859.16;5009408;28;19921;-86
2023/04/22 03:17:28;;;;;;;;;;;;;;;10.60;nan;99858.50;5024799;28;19924;-86
2023/04/22 03:20:09;;;;;;;;;;;;;;;10.57;nan;99852.75;4994229;28;20000;-86
2023/04/22 03:22:43;;;;;;;;;;;;;;;10.51;nan;99859.53;5022378;28;19921;-86
2023/04/22 03:25:19;;;;;;;;;;;;;;;10.46;nan;99856.53;4995765;28;19953;-85
2023/04/22 03:27:47;;;;;;;;;;;;;;;10.43;nan;99850.78;5001233;28;20444;-86
2023/04/22 03:30:16;;;;;;;;;;;;;;;10.39;nan;99856.41;5004220;28;19917;-86
2023/04/22 03:32:46;;;;;;;;;;;;;;;10.35;nan;99848.97;5012678;28;19932;-86
2023/04/22 03:35:20;;;;;;;;;;;;;;;10.31;nan;99843.19;5009629;28;19923;-86
2023/04/22 03:37:50;;;;;;;;;;;;;;;10.25;nan;99843.00;5002877;28;20004;-86
2023/04/22 03:40:27;;;;;;;;;;;;;;;10.16;nan;99848.28;5018916;28;19924;-87
2023/04/22 03:43:02;;;;;;;;;;;;;;;10.07;nan;99846.63;5032573;28;19921;-86
2023/04/22 03:45:37;;;;;;;;;;;;;;;9.99;nan;99841.38;5025361;28;20519;-86
2023/04/22 03:48:03;;;;;;;;;;;;;;;9.94;nan;99843.69;5032753;28;19988;-86
2023/04/22 03:50:45;;;;;;;;;;;;;;;;;;;;;
2023/04/22 03:53:31;;;;;;;;;;;;;;;9.87;nan;99840.03;5035963;28;20020;-85
2023/04/22 03:56:00;;;;;;;;;;;;;;;9.85;nan;99832.28;5027358;28;19955;-84
2023/04/22 03:58:39;;;;;;;;;;;;;;;;;;;;;
2023/04/22 04:01:22;;;;;;;;;;;;;;;9.80;nan;99824.03;5028458;28;19927;-84
2023/04/22 04:03:59;;;;;;;;;;;;;;;9.81;nan;99825.66;5007312;28;20282;-85
2023/04/22 04:06:27;;;;;;;;;;;;;;;9.80;nan;99826.66;4993679;28;19972;-84
2023/04/22 04:09:02;;;;;;;;;;;;;;;9.78;nan;99820.72;5008186;28;20001;-84
2023/04/22 04:11:28;;;;;;;;;;;;;;;9.74;nan;99814.09;5023659;28;19921;-84
2023/04/22 04:14:01;;;;;;;;;;;;;;;9.70;nan;99813.63;5019364;28;19996;-84
2023/04/22 04:16:29;;;;;;;;;;;;;;;9.65;nan;99820.38;5013064;28;19956;-85
2023/04/22 04:19:11;;;;;;;;;;;;;;;9.56;nan;99820.38;5041328;28;19948;-85
2023/04/22 04:21:52;;;;;;;;;;;;;;;;;;;;;
2023/04/22 04:24:29;;;;;;;;;;;;;;;9.45;nan;99815.38;5032111;28;20494;-86
2023/04/22 04:26:58;;;;;;;;;;;;;;;9.36;nan;99819.00;5035270;28;19924;-86
2023/04/22 04:35:19;;;;;;;;;;;;;;;9.20;nan;99800.47;5026096;28;19917;-85
2023/04/22 04:38:02;;;;;;;;;;;;;;;9.24;nan;99807.09;5011054;28;19917;-84
2023/04/22 04:40:34;;;;;;;;;;;;;;;9.30;nan;99802.00;5012783;28;19929;-85
2023/04/22 04:43:31;;;;;;;;;;;;;;;9.34;nan;99803.34;5026929;28;19916;-85
2023/04/22 04:46:04;;;;;;;;;;;;;;;9.33;nan;99796.41;5009124;28;19916;-85
2023/04/22 04:48:38;;;;;;;;;;;;;;;9.38;nan;99792.44;4997152;28;20005;-84
2023/04/22 04:51:15;;;;;;;;;;;;;;;9.40;nan;99804.50;5026074;28;19942;-86
2023/04/22 04:53:56;;;;;;;;;;;;;;;9.41;nan;99807.97;5029533;28;19973;-85
2023/04/22 04:56:34;;;;;;;;;;;;;;;9.43;nan;99809.44;5015405;28;19926;-84
2023/04/22 04:59:03;;;;;;;;;;;;;;;9.48;nan;99806.31;5023711;28;19940;-84
2023/04/22 05:01:28;;;;;;;;;;;;;;;9.53;nan;99801.38;5006934;28;19979;-84
2023/04/22 05:03:59;;;;;;;;;;;;;;;9.57;nan;99806.16;5005504;28;19917;-84
2023/04/22 05:06:32;;;;;;;;;;;;;;;9.64;nan;99811.63;5020152;28;20378;-84
2023/04/22 05:09:03;;;;;;;;;;;;;;;9.71;nan;99811.81;5005269;28;20286;-84
2023/04/22 05:11:39;;;;;;;;;;;;;;;9.75;nan;99807.84;5030011;28;19952;-85
2023/04/22 05:14:09;;;;;;;;;;;;;;;9.81;nan;99815.09;5018020;28;20335;-85
2023/04/22 05:17:18;;;;;;;;;;;;;;;9.87;nan;99826.84;5013050;28;19964;-85
2023/04/22 05:19:51;;;;;;;;;;;;;;;9.88;nan;99821.38;5013712;28;19917;-84
2023/04/22 05:22:17;;;;;;;;;;;;;;;9.93;nan;99834.91;5022349;28;19925;-85
2023/04/22 05:24:45;;;;;;;;;;;;;;;9.97;nan;99849.44;5011344;28;20418;-84
2023/04/22 05:27:13;;;;;;;;;;;;;;;10.03;nan;99845.31;5026108;28;19923;-84
2023/04/22 05:29:39;;;;;;;;;;;;;;;10.09;nan;99842.03;5009308;28;19971;-84
2023/04/22 05:32:13;;;;;;;;;;;;;;;10.17;nan;99851.75;5017230;28;19924;-85
2023/04/22 05:35:02;;;;;;;;;;;;;;;10.28;nan;99856.75;5023949;28;19959;-84
2023/04/22 05:37:27;;;;;;;;;;;;;;;10.37;nan;99857.56;5027438;28;19978;-84
2023/04/22 05:39:53;;;;;;;;;;;;;;;10.44;nan;99857.69;5017054;28;19917;-84
2023/04/22 05:42:24;;;;;;;;;;;;;;;10.52;nan;99860.34;5007285;28;19921;-84
2023/04/22 05:44:57;;;;;;;;;;;;;;;10.60;nan;99849.75;5015570;28;19916;-84
2023/04/22 05:47:22;;;;;;;;;;;;;;;10.75;nan;99850.72;5041026;28;19917;-84
2023/04/22 05:49:50;;;;;;;;;;;;;;;10.99;nan;99855.09;5011624;28;19916;-85
2023/04/22 05:52:16;;;;;;;;;;;;;;;11.20;nan;99856.34;4998351;28;20504;-85
2023/04/22 05:54:49;;;;;;;;;;;;;;;11.18;nan;99858.34;5026740;28;19917;-84
2023/04/22 05:57:15;;;;;;;;;;;;;;;11.19;nan;99860.81;5013420;28;20357;-84
2023/04/22 05:59:50;;;;;;;;;;;;;;;11.26;nan;99867.06;5009918;28;19916;-84
2023/04/22 06:02:16;;;;;;;;;;;;;;;11.36;nan;99864.19;5018146;28;19967;-84
2023/04/22 06:04:47;;;;;;;;;;;;;;;11.43;nan;99866.97;5017330;28;20155;-86
2023/04/22 06:07:19;;;;;;;;;;;;;;;11.47;nan;99877.06;5001177;28;19963;-86
2023/04/22 06:09:48;;;;;;;;;;;;;;;11.50;nan;99870.59;5002438;28;21111;-86
2023/04/22 06:12:16;;;;;;;;;;;;;;;11.62;nan;99871.84;5014849;28;20015;-85
2023/04/22 06:14:46;;;;;;;;;;;;;;;11.79;nan;99874.38;5004077;28;20028;-85
2023/04/22 06:17:14;;;;;;;;;;;;;;;11.87;nan;99880.50;5005231;28;19924;-85
2023/04/22 06:19:48;;;;;;;;;;;;;;;11.99;nan;99888.88;5004957;28;19928;-86
2023/04/22 06:22:16;;;;;;;;;;;;;;;12.25;nan;99890.31;4990240;28;19928;-85
2023/04/22 06:24:41;;;;;;;;;;;;;;;12.49;nan;99891.94;4991859;28;19924;-86
2023/04/22 06:27:07;;;;;;;;;;;;;;;12.77;nan;99896.63;4985154;28;20003;-86
2023/04/22 06:29:35;;;;;;;;;;;;;;;13.16;nan;99896.38;5012375;28;19927;-84
2023/04/22 06:32:02;;;;;;;;;;;;;;;13.65;nan;99890.47;5019759;28;20406;-84
2023/04/22 06:34:37;;;;;;;;;;;;;;;14.04;nan;99883.94;4997911;28;19920;-83
2023/04/22 06:37:11;;;;;;;;;;;;;;;14.39;nan;99878.69;5018746;28;19917;-84
2023/04/22 06:39:38;;;;;;;;;;;;;;;14.88;nan;99880.50;5014942;28;19917;-85
2023/04/22 06:42:07;;;;;;;;;;;;;;;15.48;nan;99873.59;5022625;28;20337;-85
2023/04/22 06:44:32;;;;;;;;;;;;;;;16.05;nan;99881.38;5035667;28;20007;-85
2023/04/22 06:46:57;;;;;;;;;;;;;;;16.40;nan;99875.84;5039778;28;19964;-84
2023/04/22 06:49:25;;;;;;;;;;;;;;;16.56;nan;99870.06;5032827;28;20375;-85
2023/04/22 06:51:53;;;;;;;;;;;;;;;16.97;nan;99872.50;5017472;28;19917;-86
2023/04/22 06:54:19;;;;;;;;;;;;;;;17.17;nan;99869.78;5006232;28;19921;-85
2023/04/22 06:56:45;;;;;;;;;;;;;;;17.09;nan;99853.16;5007100;28;19925;-85
2023/04/22 06:59:10;;;;;;;;;;;;;;;16.53;nan;99855.31;5032218;28;19947;-85
2023/04/22 07:01:51;;;;;;;;;;;;;;;;;;;;;
2023/04/22 07:07:24;;;;;;;;;;;;;;;16.27;nan;99858.81;5001214;28;19925;-86
2023/04/22 07:09:49;;;;;;;;;;;;;;;17.04;nan;99858.31;5006157;28;19916;-85
2023/04/22 07:12:15;;;;;;;;;;;;;;;17.83;nan;99855.28;5010095;28;19921;-85
2023/04/22 07:14:43;;;;;;;;;;;;;;;18.66;nan;99843.50;5005065;28;19921;-85
2023/04/22 07:17:31;;;;;;;;;;;;;;;19.47;nan;99852.28;5014995;28;19947;-85
2023/04/22 07:20:06;;;;;;;;;;;;;;;20.19;nan;99848.78;5013303;28;20339;-85
2023/04/22 07:22:35;;;;;;;;;;;;;;;20.44;nan;99859.28;5019333;28;19921;-84
2023/04/22 07:25:00;;;;;;;;;;;;;;;20.28;nan;99855.41;5021332;28;19927;-86
2023/04/22 07:27:25;;;;;;;;;;;;;;;20.13;nan;99858.53;5031044;28;20342;-85
2023/04/22 07:29:51;;;;;;;;;;;;;;;19.92;nan;99846.47;5035895;28;19956;-84
2023/04/22 07:32:19;;;;;;;;;;;;;;;19.95;nan;99845.22;5003417;28;19968;-84
2023/04/22 07:35:05;;;;;;;;;;;;;;;20.08;nan;99850.38;5027119;28;19967;-84
2023/04/22 07:37:30;;;;;;;;;;;;;;;20.34;nan;99851.81;5008715;28;20363;-86
2023/04/22 07:39:56;;;;;;;;;;;;;;;20.53;nan;99835.59;5015417;28;19963;-86
2023/04/22 07:42:21;;;;;;;;;;;;;;;20.88;nan;99837.44;5010557;28;20374;-86
2023/04/22 07:44:47;;;;;;;;;;;;;;;21.35;nan;99840.00;5029977;28;19968;-86
2023/04/22 07:47:12;;;;;;;;;;;;;;;21.72;nan;99708.63;5000967;28;20003;-86
2023/04/22 07:49:37;;;;;;;;;;;;;;;22.16;nan;99702.53;5016852;28;19917;-87
2023/04/22 07:52:02;;;;;;;;;;;;;;;22.61;nan;99709.59;4984653;28;20017;-87
2023/04/22 07:54:27;;;;;;;;;;;;;;;22.98;nan;99709.78;5016589;28;21704;-86
2023/04/22 07:56:53;;;;;;;;;;;;;;;23.03;nan;99723.31;5025204;28;19917;-86
2023/04/22 07:59:18;;;;;;;;;;;;;;;22.98;nan;99712.47;5011377;28;20363;-86
2023/04/22 08:01:45;;;;;;;;;;;;;;;23.22;nan;99726.47;5018460;28;19925;-86
2023/04/22 08:04:10;;;;;;;;;;;;;;;23.60;nan;99831.81;5012146;28;19917;-86
2023/04/22 08:06:35;;;;;;;;;;;;;;;23.73;nan;99847.59;5030783;28;19986;-86
2023/04/22 08:09:01;;;;;;;;;;;;;;;24.02;nan;99841.94;5050687;28;19921;-86
2023/04/22 08:11:26;;;;;;;;;;;;;;;24.26;nan;99845.09;5031518;28;20417;-86
2023/04/22 08:13:51;;;;;;;;;;;;;;;24.19;nan;99842.59;5036708;28;19916;-86
2023/04/22 08:16:16;;;;;;;;;;;;;;;24.39;nan;99847.34;5022241;28;20441;-86
2023/04/22 08:18:41;;;;;;;;;;;;;;;24.55;nan;99845.56;5014505;28;19955;-85
2023/04/22 08:21:07;;;;;;;;;;;;;;;24.40;nan;99853.56;5016836;28;19955;-85
2023/04/22 08:23:32;;;;;;;;;;;;;;;24.10;nan;99842.28;5032726;28;19921;-85
2023/04/22 08:25:57;;;;;;;;;;;;;;;24.03;nan;99840.88;5024527;28;20315;-85
2023/04/22 08:28:22;;;;;;;;;;;;;;;24.13;nan;99843.66;5032378;28;19939;-85
2023/04/22 08:30:48;;;;;;;;;;;;;;;24.32;nan;99836.75;5031415;28;19928;-85
2023/04/22 08:33:13;;;;;;;;;;;;;;;24.67;nan;99837.28;5014253;28;19975;-85
2023/04/22 08:35:39;;;;;;;;;;;;;;;24.88;nan;99835.50;5016459;28;20330;-86
2023/04/22 08:38:04;;;;;;;;;;;;;;;24.98;nan;99833.66;5018469;28;19999;-85
2023/04/22 08:40:29;;;;;;;;;;;;;;;24.79;nan;99836.00;5017575;28;19956;-85
2023/04/22 08:42:55;;;;;;;;;;;;;;;24.74;nan;99833.28;5035738;28;19921;-85
2023/04/22 08:45:21;;;;;;;;;;;;;;;24.68;nan;99830.81;5038246;28;19952;-85
2023/04/22 08:47:47;;;;;;;;;;;;;;;24.56;nan;99837.22;5035278;28;20075;-86
2023/04/22 08:50:12;;;;;;;;;;;;;;;24.26;nan;99835.09;5014896;28;20017;-86
2023/04/22 08:52:37;;;;;;;;;;;;;;;24.20;nan;99827.22;5022096;28;19925;-85
2023/04/22 08:55:03;;;;;;;;;;;;;;;23.98;nan;99830.00;5015241;28;19916;-85
2023/04/22 08:57:28;;;;;;;;;;;;;;;23.65;nan;99829.16;5016710;28;19964;-86
2023/04/22 08:59:55;;;;;;;;;;;;;;;23.66;nan;99825.38;5016199;28;20001;-85
2023/04/22 09:02:20;;;;;;;;;;;;;;;23.94;nan;99832.41;5035328;28;19936;-85
2023/04/22 09:04:46;;;;;;;;;;;;;;;24.11;nan;99825.00;5039618;28;19921;-86
2023/04/22 09:07:17;;;;;;;;;;;;;;;24.43;nan;99821.44;5016017;28;19917;-86
2023/04/22 09:09:43;;;;;;;;;;;;;;;25.23;nan;99820.53;5013974;28;19921;-86
2023/04/22 09:12:09;;;;;;;;;;;;;;;25.74;nan;99817.91;5030370;28;19952;-86
2023/04/22 09:14:34;;;;;;;;;;;;;;;26.08;nan;99815.50;5017169;28;19952;-86
2023/04/22 09:17:01;;;;;;;;;;;;;;;26.09;nan;99811.72;5033550;28;20011;-86
2023/04/22 09:19:26;;;;;;;;;;;;;;;26.34;nan;99808.16;5031677;28;19970;-85
2023/04/22 09:21:52;;;;;;;;;;;;;;;26.68;nan;99805.66;5031547;28;19924;-86
2023/04/22 09:24:18;;;;;;;;;;;;;;;27.02;nan;99804.16;5028808;28;19935;-86
2023/04/22 09:26:43;;;;;;;;;;;;;;;26.82;nan;99803.19;5016370;28;19917;-86
2023/04/22 09:29:12;;;;;;;;;;;;;;;26.25;nan;99809.81;5034310;28;20034;-86
2023/04/22 09:31:39;;;;;;;;;;;;;;;25.81;nan;99803.03;5030663;28;20829;-86
2023/04/22 09:34:04;;;;;;;;;;;;;;;25.95;nan;99806.00;5041637;28;19917;-85
2023/04/22 09:36:33;;;;;;;;;;;;;;;25.89;nan;99809.81;5017137;28;19923;-85
2023/04/22 09:38:59;;;;;;;;;;;;;;;25.79;nan;99816.03;5018230;28;20118;-85
2023/04/22 09:41:28;;;;;;;;;;;;;;;25.56;nan;99805.72;5026762;28;19921;-85
2023/04/22 09:43:53;;;;;;;;;;;;;;;25.30;nan;99813.78;5016800;28;20271;-85
2023/04/22 09:46:20;;;;;;;;;;;;;;;25.87;nan;99811.19;5035023;28;19920;-85
2023/04/22 09:48:46;;;;;;;;;;;;;;;26.39;nan;99810.88;5035308;28;20052;-85
2023/04/22 09:51:18;;;;;;;;;;;;;;;26.71;nan;99803.47;5037915;28;20118;-85
2023/04/22 09:53:43;;;;;;;;;;;;;;;27.32;nan;99792.38;5045195;28;19917;-85
2023/04/22 09:56:08;;;;;;;;;;;;;;;28.08;nan;99788.28;5030649;28;20008;-86
2023/04/22 09:58:37;;;;;;;;;;;;;;;28.66;nan;99789.34;5038175;28;19925;-85
2023/04/22 10:01:02;;;;;;;;;;;;;;;29.28;nan;99792.91;5036519;28;19917;-85
2023/04/22 10:03:28;;;;;;;;;;;;;;;29.87;nan;99798.84;5021546;28;20437;-85
2023/04/22 10:05:53;;;;;;;;;;;;;;;30.14;nan;99789.13;5037254;28;19947;-85
2023/04/22 10:08:18;;;;;;;;;;;;;;;30.01;nan;99783.34;5018271;28;19921;-85
2023/04/22 10:10:43;;;;;;;;;;;;;;;30.06;nan;99782.44;5028741;28;19924;-85
2023/04/22 10:13:08;;;;;;;;;;;;;;;30.18;nan;99782.75;5013616;28;19927;-85
2023/04/22 10:15:41;;;;;;;;;;;;;;;30.26;nan;99781.28;5028448;28;19920;-85
2023/04/22 10:18:09;;;;;;;;;;;;;;;30.58;nan;99777.69;5028680;28;19970;-85
2023/04/22 10:20:35;;;;;;;;;;;;;;;30.68;nan;99780.19;5034120;28;19916;-85
2023/04/22 10:23:03;;;;;;;;;;;;;;;30.81;nan;99778.56;5011281;28;19929;-84
2023/04/22 10:25:28;;;;;;;;;;;;;;;30.91;nan;99780.28;5012081;28;19956;-84
2023/04/22 10:28:00;;;;;;;;;;;;;;;31.21;nan;99783.47;5012727;28;19971;-85
2023/04/22 10:30:27;;;;;;;;;;;;;;;31.44;nan;99778.84;5030042;28;20045;-85
2023/04/22 10:32:52;;;;;;;;;;;;;;;31.41;nan;99777.56;5030383;28;19925;-83
2023/04/22 10:35:25;;;;;;;;;;;;;;;31.53;nan;99783.31;5036022;28;19927;-84
2023/04/22 10:40:04;;;;;;;;;;;;;;;31.67;24.38;99777.75;5051324;27;19929;-87
2023/04/22 10:42:29;;;;;;;;;;;;;;;32.41;24.86;99765.47;5058409;28;19931;-86
2023/04/22 10:44:59;;;;;;;;;;;;;;;32.69;22.95;99768.00;5063497;28;20613;-85
2023/04/22 10:47:28;;;;;;;;;;;;;;;33.05;23.44;99770.50;5060734;28;20514;-86
2023/04/22 10:50:12;;;;;;;;;;;;;;;33.54;22.74;99776.66;5061162;28;19931;-86
2023/04/22 10:52:38;;;;;;;;;;;;;;;33.32;22.74;99765.84;5055471;28;20035;-86
2023/04/22 10:55:04;;;;;;;;;;;;;;;32.35;23.44;99762.06;5082814;28;19972;-86
2023/04/22 10:57:36;;;;;;;;;;;;;;;31.27;24.01;99763.09;5056435;28;20229;-86
2023/04/22 11:00:21;;;;;;;;;;;;;;;30.11;26.35;99766.00;5064785;28;19921;-88
2023/04/22 11:02:51;;;;;;;;;;;;;;;30.56;26.06;99755.34;5064689;28;19932;-86
2023/04/22 11:05:18;;;;;;;;;;;;;;;31.38;25.55;99755.50;5086531;28;19929;-87
2023/04/22 11:07:43;;;;;;;;;;;;;;;31.73;24.53;99745.66;5061438;28;20010;-87
2023/04/22 11:10:14;;;;;;;;;;;;;;;31.01;25.39;99747.31;5060673;28;19971;-87
2023/04/22 11:12:42;;;;;;;;;;;;;;;30.88;25.83;99750.88;5064506;28;19992;-86
2023/04/22 11:15:08;;;;;;;;;;;;;;;31.70;25.97;99747.09;5061111;28;19932;-87
2023/04/22 11:17:34;;;;;;;;;;;;;;;32.58;23.95;99751.88;5054387;28;19932;-87
2023/04/22 11:20:00;;;;;;;;;;;;;;;32.87;22.67;99753.22;5052764;28;20314;-87
2023/04/22 11:22:25;;;;;;;;;;;;;;;33.40;22.04;99752.13;5058539;28;20390;-87
2023/04/22 11:24:54;;;;;;;;;;;;;;;33.20;22.14;99750.88;5064677;28;19916;-87
2023/04/22 11:27:25;;;;;;;;;;;;;;;33.11;22.61;99755.53;5060606;28;20200;-87
2023/04/22 11:30:02;;;;;;;;;;;;;;;33.07;21.88;99753.75;5054305;28;19982;-88
2023/04/22 11:32:28;;;;;;;;;;;;;;;32.27;22.36;99751.88;5057156;28;20139;-87
2023/04/22 11:34:53;;;;;;;;;;;;;;;32.92;21.39;99755.81;5056371;28;20290;-86
2023/04/22 11:37:18;;;;;;;;;;;;;;;32.86;21.51;99754.34;5090384;28;19944;-87
2023/04/22 11:39:44;;;;;;;;;;;;;;;32.99;21.49;99766.28;5062278;28;20017;-87
2023/04/22 11:42:11;;;;;;;;;;;;;;;32.78;21.78;99755.16;5058659;28;19921;-87
2023/04/22 11:44:36;;;;;;;;;;;;;;;32.64;21.66;99754.47;5058226;28;19921;-87
2023/04/22 11:47:01;;;;;;;;;;;;;;;32.93;21.78;99751.94;5057755;28;20424;-87
2023/04/22 11:49:26;;;;;;;;;;;;;;;33.24;22.25;99755.69;5058168;28;21303;-87
2023/04/22 11:51:55;;;;;;;;;;;;;;;33.18;20.44;99741.34;5050536;28;19924;-86
2023/04/22 11:54:29;;;;;;;;;;;;;;;32.59;21.58;99747.22;5045426;28;19920;-87
2023/04/22 11:56:55;;;;;;;;;;;;;;;32.36;21.09;99733.56;5075427;28;19960;-86
2023/04/22 11:59:23;;;;;;;;;;;;;;;32.05;21.76;99738.28;5047997;28;20494;-86
2023/04/22 12:01:51;;;;;;;;;;;;;;;31.59;21.42;99732.06;5046923;28;20015;-86
2023/04/22 12:04:16;;;;;;;;;;;;;;;31.13;22.33;99732.31;5039974;28;19944;-86
2023/04/22 12:06:41;;;;;;;;;;;;;;;30.20;22.59;99736.91;5043800;28;20293;-86
2023/04/22 12:09:06;;;;;;;;;;;;;;;29.61;23.65;99722.13;5041502;28;20364;-86
2023/04/22 12:11:32;;;;;;;;;;;;;;;29.64;24.89;99737.88;5049013;28;19925;-85
2023/04/22 12:14:03;;;;;;;;;;;;;;;29.19;23.70;99732.84;5049748;28;19971;-85
2023/04/22 12:16:41;;;;;;;;;;;;;;;28.82;24.50;99735.53;5051841;28;19928;-84
2023/04/22 12:19:06;;;;;;;;;;;;;;;28.20;25.72;99729.97;5053539;28;19925;-85
2023/04/22 12:21:31;;;;;;;;;;;;;;;27.89;26.27;99733.03;5052245;28;19920;-85
2023/04/22 12:24:03;;;;;;;;;;;;;;;27.89;26.37;99733.03;5051061;28;19929;-86
2023/04/22 12:26:29;;;;;;;;;;;;;;;27.71;28.01;99734.50;5052187;28;20374;-85
2023/04/22 12:28:55;;;;;;;;;;;;;;;27.45;26.93;99734.72;5056302;28;19971;-84
2023/04/22 12:31:20;;;;;;;;;;;;;;;27.46;27.32;99738.22;5057153;28;19929;-85
2023/04/22 12:33:46;;;;;;;;;;;;;;;27.33;27.05;99740.50;5047953;28;19976;-85
2023/04/22 12:36:11;;;;;;;;;;;;;;;27.30;27.52;99732.94;5055206;28;19921;-85
2023/04/22 12:38:37;;;;;;;;;;;;;;;27.21;27.56;99734.63;5050734;28;20023;-84
2023/04/22 12:41:03;;;;;;;;;;;;;;;26.90;28.15;99734.75;5045860;28;19932;-85
2023/04/22 12:43:31;;;;;;;;;;;;;;;26.53;28.62;99735.19;5048007;28;19931;-86
2023/04/22 12:45:56;;;;;;;;;;;;;;;26.28;28.73;99734.16;5048018;28;19932;-85
2023/04/22 12:48:21;;;;;;;;;;;;;;;25.98;30.10;99736.94;5031452;28;20206;-84
2023/04/22 12:50:46;;;;;;;;;;;;;;;25.60;30.39;99745.34;5073015;28;20230;-85
2023/04/22 12:53:11;;;;;;;;;;;;;;;25.29;30.30;99735.53;5041785;28;20278;-83
2023/04/22 12:55:38;;;;;;;;;;;;;;;24.99;31.25;99753.31;5045048;28;19925;-85
2023/04/22 12:58:03;;;;;;;;;;;;;;;24.74;30.90;99749.47;5048370;28;19928;-84
2023/04/22 13:00:28;;;;;;;;;;;;;;;24.43;31.42;99747.66;5039365;28;19971;-85
2023/04/22 13:02:54;;;;;;;;;;;;;;;24.15;31.32;99741.56;5046486;28;20149;-84
2023/04/22 13:05:19;;;;;;;;;;;;;;;23.97;31.36;99750.88;5038791;28;19921;-84
2023/04/22 13:07:45;;;;;;;;;;;;;;;23.82;32.33;99743.50;5044507;28;19924;-85
2023/04/22 13:10:12;;;;;;;;;;;;;;;23.59;32.81;99754.59;5045305;28;20153;-85
2023/04/22 13:12:38;;;;;;;;;;;;;;;23.39;33.30;99747.94;5044535;28;20024;-84
2023/04/22 13:15:03;;;;;;;;;;;;;;;23.17;33.70;99745.31;5046381;28;19956;-85
2023/04/22 13:17:28;;;;;;;;;;;;;;;22.91;34.20;99744.19;5041308;28;19921;-85
2023/04/22 13:19:54;;;;;;;;;;;;;;;22.60;34.58;99749.22;5050541;28;19943;-85
2023/04/22 13:22:19;;;;;;;;;;;;;;;22.44;34.46;99752.75;5038630;28;19961;-84
2023/04/22 13:24:44;;;;;;;;;;;;;;;22.19;34.95;99750.47;5046506;28;19924;-85
2023/04/22 13:27:10;;;;;;;;;;;;;;;21.95;35.81;99747.16;5046644;28;20567;-85
2023/04/22 13:29:35;;;;;;;;;;;;;;;21.82;36.26;99749.13;5046334;28;19928;-84
2023/04/22 13:32:01;;;;;;;;;;;;;;;21.64;37.55;99749.38;5048466;28;19925;-84
2023/04/22 13:34:26;;;;;;;;;;;;;;;21.56;36.89;99752.47;5046592;28;20409;-85
2023/04/22 13:36:52;;;;;;;;;;;;;;;21.48;36.90;99758.25;5054982;28;19939;-85